Time;durP1;ratioP1;P1;durP2;ratioP2;P2;SDS_P1;SDS_P2;PMS_P1;PMS_P2;Temp;Humidity;BMP_temperature;BMP_pressure;BME280_temperature;BME280_humidity;BME280_pressure;Samples;Min_cycle;Max_cycle;Signal;HPM_P1;HPM_P2
2022/11/02 00:02:07;;;;;;;5.25;1.42;;;;;;;16.44;100.00;97412.56;6091330;23;20006;-93
2022/11/02 00:04:33;;;;;;;5.13;1.58;;;;;;;17.39;100.00;97414.28;6091431;23;20034;-92
2022/11/02 00:06:58;;;;;;;5.60;1.80;;;;;;;15.55;100.00;97433.00;6092365;23;20030;-91
2022/11/02 00:09:23;;;;;;;6.05;1.73;;;;;;;16.03;100.00;97436.66;6094136;23;20433;-92
2022/11/02 00:11:49;;;;;;;7.78;1.98;;;;;;;15.40;100.00;97443.31;6094751;23;20006;-92
2022/11/02 00:14:14;;;;;;;11.43;2.40;;;;;;;16.36;100.00;97455.06;6094390;23;20079;-92
2022/11/02 00:16:42;;;;;;;6.00;1.80;;;;;;;15.83;100.00;97477.97;6093269;23;20022;-92
2022/11/02 00:19:08;;;;;;;9.82;2.30;;;;;;;14.91;100.00;97485.09;6093038;23;20014;-92
2022/11/02 00:21:35;;;;;;;5.97;1.65;;;;;;;14.77;100.00;97486.59;6094768;23;20018;-93
2022/11/02 00:24:02;;;;;;;7.90;1.45;;;;;;;13.77;100.00;97499.69;6091995;23;20014;-92
2022/11/02 00:26:28;;;;;;;6.90;1.15;;;;;;;13.86;100.00;97498.44;6093397;23;20002;-91
2022/11/02 00:28:54;;;;;;;4.50;0.90;;;;;;;13.32;100.00;97516.38;6092275;23;20011;-93
2022/11/02 00:31:20;;;;;;;3.05;0.85;;;;;;;13.98;100.00;97513.66;6092609;23;20107;-92
2022/11/02 00:33:45;;;;;;;4.53;0.82;;;;;;;12.86;100.00;97513.78;6090508;23;20025;-91
2022/11/02 00:36:11;;;;;;;6.95;1.05;;;;;;;13.36;100.00;97506.63;6090275;23;20061;-91
2022/11/02 00:38:36;;;;;;;3.35;0.70;;;;;;;13.76;100.00;97503.22;6089380;23;20034;-91
2022/11/02 00:41:02;;;;;;;3.33;0.90;;;;;;;14.41;100.00;97497.81;6090823;23;20018;-93
2022/11/02 00:43:27;;;;;;;3.92;0.90;;;;;;;13.52;100.00;97507.72;6087275;23;19999;-92
2022/11/02 00:45:52;;;;;;;2.92;0.77;;;;;;;14.87;100.00;97505.38;6088093;23;20010;-91
2022/11/02 00:48:18;;;;;;;4.25;0.90;;;;;;;14.14;100.00;97512.97;6087368;23;20437;-92
2022/11/02 00:50:43;;;;;;;2.72;0.70;;;;;;;13.89;100.00;97516.69;6087349;23;20022;-91
2022/11/02 00:53:09;;;;;;;1.83;0.52;;;;;;;15.43;100.00;97511.47;6088039;23;20092;-91
2022/11/02 00:55:34;;;;;;;4.13;0.82;;;;;;;15.25;100.00;97515.84;6089782;23;20086;-92
2022/11/02 00:57:59;;;;;;;4.13;0.82;;;;;;;15.48;100.00;97520.00;6088954;23;20582;-91
2022/11/02 01:00:25;;;;;;;3.83;0.88;;;;;;;15.97;100.00;97532.50;6088103;23;20093;-91
2022/11/02 01:02:50;;;;;;;2.53;0.70;;;;;;;15.24;100.00;97544.81;6086784;23;20322;-91
2022/11/02 01:05:16;;;;;;;4.82;1.17;;;;;;;15.50;100.00;97538.31;6087942;23;20220;-92
2022/11/02 01:07:41;;;;;;;4.63;1.10;;;;;;;14.73;100.00;97549.78;6089241;23;20492;-95
2022/11/02 01:10:08;;;;;;;3.85;0.70;;;;;;;14.95;100.00;97547.03;6089805;23;20049;-92
2022/11/02 01:12:38;;;;;;;5.78;0.70;;;;;;;15.07;100.00;97553.47;6088562;23;20025;-92
2022/11/02 01:15:06;;;;;;;3.40;0.60;;;;;;;14.91;100.00;97563.84;6090352;23;19998;-91
2022/11/02 01:17:32;;;;;;;5.07;0.70;;;;;;;15.28;100.00;97565.63;6088049;23;20018;-91
2022/11/02 01:19:58;;;;;;;4.97;0.90;;;;;;;13.89;100.00;97587.44;6088287;23;20002;-91
2022/11/02 01:22:23;;;;;;;2.85;0.60;;;;;;;14.25;100.00;97589.44;6089319;23;20037;-92
2022/11/02 01:24:49;;;;;;;6.38;0.70;;;;;;;15.18;100.00;97601.97;6087161;23;20460;-92
2022/11/02 01:27:14;;;;;;;4.15;0.90;;;;;;;15.05;100.00;97603.44;6090057;23;20006;-92
2022/11/02 01:29:43;;;;;;;2.63;0.55;;;;;;;16.10;100.00;97601.09;6089632;23;20428;-92
2022/11/02 01:32:08;;;;;;;5.03;0.70;;;;;;;14.72;100.00;97621.56;6088576;23;20065;-92
2022/11/02 01:34:33;;;;;;;2.72;0.60;;;;;;;14.48;100.00;97632.19;6088170;23;20441;-91
2022/11/02 01:36:59;;;;;;;3.13;0.77;;;;;;;14.06;100.00;97633.91;6087895;23;20635;-91
2022/11/02 01:39:24;;;;;;;4.03;0.85;;;;;;;14.47;100.00;97622.59;6088391;23;20021;-92
2022/11/02 01:41:51;;;;;;;4.95;1.10;;;;;;;14.32;100.00;97624.09;6090778;23;20015;-92
2022/11/02 01:44:30;;;;;;;3.30;1.00;;;;;;;14.05;100.00;97626.97;6087749;23;20017;-92
2022/11/02 01:47:11;;;;;;;6.45;1.20;;;;;;;14.08;100.00;97626.81;6088841;23;20042;-92
2022/11/02 01:49:42;;;;;;;6.20;1.30;;;;;;;14.14;100.00;97641.44;6088239;23;20069;-92
2022/11/02 01:52:18;;;;;;;11.82;1.70;;;;;;;15.51;100.00;97643.31;6089423;23;20349;-92
2022/11/02 01:54:55;;;;;;;7.70;1.70;;;;;;;14.24;100.00;97650.66;6087285;23;20018;-92
2022/11/02 01:57:21;;;;;;;7.40;2.10;;;;;;;15.09;100.00;97640.94;6088166;23;20014;-91
2022/11/02 01:59:53;;;;;;;11.20;2.25;;;;;;;15.41;100.00;97646.47;6089622;23;20002;-91
2022/11/02 02:02:24;;;;;;;10.70;2.15;;;;;;;15.02;100.00;97658.72;6088515;23;20006;-91
2022/11/02 02:05:07;;;;;;;7.93;2.00;;;;;;;14.58;100.00;97653.63;6086420;23;20011;-92
2022/11/02 02:07:35;;;;;;;7.78;1.80;;;;;;;15.41;100.00;97659.63;6088838;23;20038;-91
2022/11/02 02:10:01;;;;;;;9.30;1.90;;;;;;;15.42;100.00;97658.66;6088160;23;20010;-92
2022/11/02 02:12:28;;;;;;;10.43;1.67;;;;;;;14.96;100.00;97651.97;6089626;23;20021;-91
2022/11/02 02:14:53;;;;;;;7.60;1.70;;;;;;;14.93;100.00;97649.47;6089207;23;20010;-92
2022/11/02 02:17:21;;;;;;;13.15;1.90;;;;;;;14.89;100.00;97670.69;6088004;23;20318;-91
2022/11/02 02:20:21;;;;;;;11.18;3.28;;;;;;;15.55;100.00;97672.13;6086947;23;20738;-92
2022/11/02 02:23:02;;;;;;;12.88;4.57;;;;;;;14.63;100.00;97673.53;6088916;23;20014;-92
2022/11/02 02:25:51;;;;;;;12.75;3.80;;;;;;;14.91;100.00;97676.75;6087505;23;20601;-91
2022/11/02 02:28:20;;;;;;;11.90;2.50;;;;;;;15.23;100.00;97679.69;6088465;23;20025;-91
2022/11/02 02:30:50;;;;;;;8.60;2.35;;;;;;;14.28;100.00;97690.69;6089936;23;20073;-91
2022/11/02 02:33:27;;;;;;;9.05;1.75;;;;;;;14.09;100.00;97690.63;6088995;23;20525;-91
2022/11/02 02:36:05;;;;;;;7.53;1.63;;;;;;;15.19;100.00;97674.56;6089818;23;20011;-92
2022/11/02 02:38:56;;;;;;;8.55;1.25;;;;;;;15.01;100.00;97678.03;6087597;23;20037;-90
2022/11/02 02:41:34;;;;;;;7.22;1.55;;;;;;;14.85;100.00;97673.44;6087148;23;20028;-91
2022/11/02 02:44:03;;;;;;;6.93;1.40;;;;;;;14.80;100.00;97690.31;6086749;23;20523;-91
2022/11/02 02:46:39;;;;;;;7.82;1.05;;;;;;;14.83;100.00;97685.78;6087636;23;19998;-91
2022/11/02 02:49:10;;;;;;;6.25;1.50;;;;;;;14.64;100.00;97671.75;6086591;23;20011;-91
2022/11/02 02:51:37;;;;;;;8.63;1.42;;;;;;;14.50;100.00;97680.16;6089736;23;20536;-91
2022/11/02 02:54:12;;;;;;;11.40;1.42;;;;;;;14.45;100.00;97680.38;6087687;23;20021;-91
2022/11/02 02:56:41;;;;;;;7.93;1.20;;;;;;;14.29;100.00;97685.41;6088394;23;20093;-91
2022/11/02 02:59:32;;;;;;;12.07;1.45;;;;;;;14.80;100.00;97685.06;6085323;23;20022;-89
2022/11/02 03:01:57;;;;;;;6.78;1.10;;;;;;;15.47;100.00;97675.09;6083588;23;20109;-89
2022/11/02 03:04:24;;;;;;;11.20;1.30;;;;;;;15.24;100.00;97677.00;6087713;23;20034;-89
2022/11/02 03:06:57;;;;;;;9.85;1.30;;;;;;;14.92;100.00;97688.91;6091576;23;20010;-90
2022/11/02 03:09:39;;;;;;;10.20;1.38;;;;;;;14.75;100.00;97687.03;6088066;23;20005;-88
2022/11/02 03:12:28;;;;;;;9.88;1.30;;;;;;;14.23;100.00;97688.28;6088124;23;20006;-89
2022/11/02 03:15:15;;;;;;;8.80;1.25;;;;;;;13.88;100.00;97697.59;6087480;23;20362;-90
2022/11/02 03:18:04;;;;;;;8.30;1.20;;;;;;;14.11;100.00;97709.75;6089933;23;20014;-92
2022/11/02 03:20:42;;;;;;;12.15;1.45;;;;;;;14.20;100.00;97719.03;6090428;23;20120;-91
2022/11/02 03:23:27;;;;;;;9.20;1.30;;;;;;;14.13;100.00;97721.88;6089331;23;20010;-92
2022/11/02 03:25:59;;;;;;;12.05;1.85;;;;;;;14.02;100.00;97736.34;6089264;23;20421;-93
2022/11/02 03:28:45;;;;;;;11.27;1.40;;;;;;;14.06;100.00;97732.69;6089473;23;20009;-91
2022/11/02 03:31:40;;;;;;;8.60;1.33;;;;;;;13.50;100.00;97732.22;6089306;23;20038;-93
2022/11/02 03:34:25;;;;;;;12.93;1.90;;;;;;;14.03;100.00;97738.91;6088919;23;20069;-92
2022/11/02 03:37:18;;;;;;;9.98;1.55;;;;;;;14.27;100.00;97763.28;6089203;23;20140;-92
2022/11/02 03:39:57;;;;;;;9.25;1.58;;;;;;;13.63;100.00;97748.31;6088292;23;20006;-93
2022/11/02 03:42:26;;;;;;;11.52;1.48;;;;;;;14.87;100.00;97748.66;6089643;23;20006;-93
2022/11/02 03:45:18;;;;;;;11.98;1.50;;;;;;;15.13;100.00;97742.28;6088469;23;20006;-93
2022/11/02 03:47:49;;;;;;;8.35;1.30;;;;;;;17.33;100.00;97730.88;6088998;23;20340;-91
2022/11/02 03:50:20;;;;;;;14.82;2.17;;;;;;;14.56;100.00;97755.16;6090229;23;20085;-92
2022/11/02 03:52:49;;;;;;;7.35;1.08;;;;;;;14.60;100.00;97767.22;6091114;23;20073;-93
2022/11/02 03:55:25;;;;;;;9.30;1.58;;;;;;;15.05;100.00;97770.66;6087809;23;20489;-92
2022/11/02 03:57:51;;;;;;;9.70;1.45;;;;;;;14.79;100.00;97767.34;6090746;23;20021;-92
2022/11/02 04:00:22;;;;;;;14.52;1.73;;;;;;;15.36;100.00;97778.91;6090922;23;20006;-92
2022/11/02 04:02:51;;;;;;;10.23;1.27;;;;;;;13.90;100.00;97783.06;6091205;23;20126;-93
2022/11/02 04:05:17;;;;;;;8.52;1.80;;;;;;;15.07;100.00;97781.94;6087984;23;20011;-92
2022/11/02 04:10:31;;;;;;;10.32;1.45;;;;;;;14.29;100.00;97790.34;6090073;23;20037;-93
2022/11/02 04:15:41;;;;;;;12.55;1.40;;;;;;;13.85;100.00;97795.53;6091717;23;20033;-92
2022/11/02 04:20:50;;;;;;;;;;;;;;;15.47;100.00;97791.53;6091389;23;20060;-93
2022/11/02 04:26:01;;;;;;;11.07;1.58;;;;;;;14.44;100.00;97788.00;6090985;23;20243;-93
2022/11/02 04:28:26;;;;;;;7.18;1.13;;;;;;;14.88;100.00;97802.84;6090914;23;20010;-93
2022/11/02 04:30:51;;;;;;;6.20;1.05;;;;;;;15.38;100.00;97799.84;6089446;23;20010;-93
2022/11/02 04:33:32;;;;;;;12.27;1.35;;;;;;;15.38;100.00;97784.09;6089231;23;20085;-93
2022/11/02 04:36:02;;;;;;;12.13;1.52;;;;;;;15.83;100.00;97768.97;6089863;23;20089;-93
2022/11/02 04:38:41;;;;;;;10.75;1.55;;;;;;;15.25;100.00;97770.63;6089314;23;20033;-93
2022/11/02 04:43:56;;;;;;;8.07;1.20;;;;;;;15.15;100.00;97774.56;6090177;23;20073;-92
2022/11/02 04:46:23;;;;;;;7.43;1.30;;;;;;;13.05;100.00;97806.22;6089609;23;20441;-92
2022/11/02 04:48:49;;;;;;;8.07;1.20;;;;;;;13.95;100.00;97801.28;6089320;23;20378;-94
2022/11/02 04:51:15;;;;;;;11.55;1.55;;;;;;;13.99;100.00;97801.09;6089714;23;20102;-93
2022/11/02 04:53:40;;;;;;;7.30;1.17;;;;;;;15.26;100.00;97811.72;6087570;23;20014;-92
2022/11/02 04:56:07;;;;;;;12.95;1.25;;;;;;;14.72;100.00;97810.53;6089482;23;20045;-93
2022/11/02 04:58:32;;;;;;;7.05;1.35;;;;;;;15.01;100.00;97812.78;6091944;23;20396;-93
2022/11/02 05:00:58;;;;;;;7.80;1.30;;;;;;;15.78;100.00;97807.72;6091230;23;20025;-92
2022/11/02 05:03:23;;;;;;;10.95;1.25;;;;;;;15.78;100.00;97808.59;6088456;23;20016;-92
2022/11/02 05:05:53;;;;;;;11.55;1.35;;;;;;;15.64;100.00;97809.22;6090311;23;20122;-92
2022/11/02 05:08:19;;;;;;;11.60;1.88;;;;;;;15.63;100.00;97811.88;6088337;23;20006;-93
2022/11/02 05:10:44;;;;;;;11.15;1.38;;;;;;;16.00;100.00;97812.88;6087990;23;20020;-92
2022/11/02 05:13:10;;;;;;;12.07;1.45;;;;;;;15.24;100.00;97826.72;6088443;23;20317;-92
2022/11/02 05:15:38;;;;;;;9.93;1.40;;;;;;;15.19;100.00;97829.53;6089388;23;20085;-92
2022/11/02 05:18:04;;;;;;;9.98;2.42;;;;;;;14.02;100.00;97849.94;6088470;23;20014;-93
2022/11/02 05:20:29;;;;;;;9.57;1.25;;;;;;;14.43;100.00;97849.25;6090844;23;20010;-93
2022/11/02 05:22:54;;;;;;;9.45;1.27;;;;;;;14.03;100.00;97863.88;6088304;23;20038;-93
2022/11/02 05:25:20;;;;;;;9.32;1.17;;;;;;;15.64;100.00;97842.50;6090624;23;19998;-93
2022/11/02 05:27:45;;;;;;;6.40;1.17;;;;;;;15.54;100.00;97860.44;6088221;23;20006;-92
2022/11/02 05:30:11;;;;;;;10.63;1.25;;;;;;;15.84;100.00;97855.66;6089132;23;20065;-93
2022/11/02 05:32:36;;;;;;;6.82;1.00;;;;;;;15.63;100.00;97870.56;6088931;23;20472;-90
2022/11/02 05:35:03;;;;;;;10.10;1.33;;;;;;;15.72;100.00;97871.09;6088726;23;20006;-91
2022/11/02 05:37:28;;;;;;;11.20;1.33;;;;;;;16.67;100.00;97869.38;6091017;23;19998;-90
2022/11/02 05:39:53;;;;;;;12.18;2.03;;;;;;;16.41;100.00;97859.22;6087750;23;20051;-91
2022/11/02 05:42:19;;;;;;;6.95;1.20;;;;;;;16.57;100.00;97872.50;6086145;23;20011;-90
2022/11/02 05:44:44;;;;;;;8.85;1.00;;;;;;;16.06;100.00;97864.34;6089096;23;20010;-89
2022/11/02 05:47:09;;;;;;;9.10;1.27;;;;;;;15.04;100.00;97869.56;6089576;23;20014;-91
2022/11/02 05:49:35;;;;;;;8.32;1.30;;;;;;;16.14;100.00;97860.41;6088511;23;20006;-90
2022/11/02 05:52:00;;;;;;;8.75;1.25;;;;;;;15.85;100.00;97867.00;6087302;23;20014;-90
2022/11/02 05:54:26;;;;;;;9.02;1.10;;;;;;;15.79;100.00;97864.63;6087107;23;20274;-90
2022/11/02 05:56:51;;;;;;;7.60;1.17;;;;;;;15.42;100.00;97875.00;6088307;23;20061;-91
2022/11/02 05:59:17;;;;;;;9.13;1.38;;;;;;;15.45;100.00;97872.22;6089019;23;20010;-90
2022/11/02 06:01:42;;;;;;;9.80;1.20;;;;;;;15.63;100.00;97873.19;6088418;23;20015;-91
2022/11/02 06:04:08;;;;;;;7.65;1.45;;;;;;;15.15;100.00;97871.75;6089570;23;20017;-91
2022/11/02 06:06:33;;;;;;;8.77;1.33;;;;;;;15.63;100.00;97878.47;6090884;23;20335;-90
2022/11/02 06:08:58;;;;;;;9.00;1.23;;;;;;;16.37;100.00;97867.25;6088312;23;20006;-90
2022/11/02 06:11:24;;;;;;;7.28;1.23;;;;;;;17.38;100.00;97873.81;6088842;23;20093;-90
2022/11/02 06:13:50;;;;;;;7.60;1.20;;;;;;;16.78;100.00;97882.00;6088722;23;20329;-90
2022/11/02 06:16:16;;;;;;;9.00;1.23;;;;;;;17.86;100.00;97878.41;6088491;23;20007;-88
2022/11/02 06:18:42;;;;;;;7.38;1.17;;;;;;;18.47;100.00;97860.19;6087659;23;20014;-90
2022/11/02 06:21:08;;;;;;;10.48;1.15;;;;;;;18.46;100.00;97853.22;6088859;23;20010;-89
2022/11/02 06:23:34;;;;;;;14.55;1.42;;;;;;;17.35;100.00;97859.91;6088064;23;20017;-90
2022/11/02 06:26:00;;;;;;;10.23;1.10;;;;;;;16.77;100.00;97869.78;6087886;23;20022;-89
2022/11/02 06:28:27;;;;;;;12.93;1.42;;;;;;;17.43;100.00;97856.91;6087517;23;20006;-89
2022/11/02 06:30:53;;;;;;;6.05;1.00;;;;;;;16.69;100.00;97861.41;6090367;23;19998;-90
2022/11/02 06:33:19;;;;;;;9.05;1.38;;;;;;;16.19;100.00;97866.34;6089185;23;20046;-90
2022/11/02 06:35:46;;;;;;;5.95;1.23;;;;;;;16.52;100.00;97855.16;6085178;23;20050;-91
2022/11/02 06:38:12;;;;;;;5.75;1.08;;;;;;;17.09;100.00;97864.75;6087789;23;20006;-91
2022/11/02 06:40:37;;;;;;;5.88;1.13;;;;;;;16.96;100.00;97867.09;6090443;23;20042;-91
2022/11/02 06:43:03;;;;;;;10.38;1.40;;;;;;;16.09;100.00;97870.31;6088763;23;20017;-91
2022/11/02 06:45:28;;;;;;;8.27;1.02;;;;;;;16.81;100.00;97858.16;6089692;23;20455;-91
2022/11/02 06:47:54;;;;;;;10.45;1.25;;;;;;;17.38;100.00;97851.84;6089013;23;20464;-92
2022/11/02 06:50:21;;;;;;;9.10;1.40;;;;;;;17.15;100.00;97839.88;6088082;23;20062;-91
2022/11/02 06:52:47;;;;;;;8.90;1.30;;;;;;;16.68;100.00;97857.88;6090647;23;20097;-91
2022/11/02 06:55:14;;;;;;;12.40;1.25;;;;;;;18.27;100.00;97838.38;6087551;23;20109;-90
2022/11/02 06:57:41;;;;;;;10.27;1.40;;;;;;;17.44;100.00;97837.50;6088303;23;20065;-92
2022/11/02 07:00:11;;;;;;;14.98;1.40;;;;;;;16.89;100.00;97842.84;6088405;23;20040;-91
2022/11/02 07:02:37;;;;;;;10.15;1.45;;;;;;;18.39;100.00;97831.59;6089994;23;20025;-90
2022/11/02 07:05:03;;;;;;;8.85;1.50;;;;;;;17.07;100.00;97845.50;6090136;23;20002;-92
2022/11/02 07:07:29;;;;;;;8.27;1.25;;;;;;;16.47;100.00;97853.66;6088186;23;20014;-89
2022/11/02 07:09:54;;;;;;;8.70;1.55;;;;;;;15.82;100.00;97851.38;6090240;23;20014;-92
2022/11/02 07:12:19;;;;;;;8.27;1.40;;;;;;;16.30;100.00;97855.31;6088804;23;20503;-91
2022/11/02 07:14:45;;;;;;;10.15;1.38;;;;;;;16.35;100.00;97853.31;6088106;23;20018;-91
2022/11/02 07:17:10;;;;;;;9.68;1.50;;;;;;;17.70;100.00;97844.06;6087710;23;20098;-90
2022/11/02 07:19:36;;;;;;;8.60;1.27;;;;;;;16.00;100.00;97860.22;6088200;23;20006;-90
2022/11/02 07:22:01;;;;;;;8.52;1.27;;;;;;;16.12;100.00;97871.97;6084815;23;20044;-90
2022/11/02 07:24:27;;;;;;;9.90;1.52;;;;;;;15.26;100.00;97876.56;6085630;23;20491;-89
2022/11/02 07:26:52;;;;;;;11.40;1.42;;;;;;;15.09;100.00;97869.38;6086195;23;20042;-89
2022/11/02 07:29:18;;;;;;;10.38;1.48;;;;;;;15.39;100.00;97877.72;6085462;23;20590;-89
2022/11/02 07:31:44;;;;;;;9.63;1.30;;;;;;;16.24;100.00;97875.78;6085036;23;20050;-89
2022/11/02 07:34:10;;;;;;;7.75;1.55;;;;;;;14.58;100.00;97874.88;6086873;23;20018;-88
2022/11/02 07:36:42;;;;;;;10.82;1.45;;;;;;;14.51;100.00;97870.78;6087311;23;20034;-89
2022/11/02 07:39:07;;;;;;;20.42;2.30;;;;;;;15.03;100.00;97867.88;6085652;23;20026;-89
2022/11/02 07:41:34;;;;;;;12.77;1.35;;;;;;;13.93;100.00;97876.47;6085173;23;20010;-88
2022/11/02 07:43:59;;;;;;;10.85;1.10;;;;;;;14.95;100.00;97889.19;6084006;23;20441;-90
2022/11/02 07:46:25;;;;;;;11.05;1.05;;;;;;;15.00;100.00;97886.34;6086792;23;20006;-90
2022/11/02 07:48:50;;;;;;;11.18;1.58;;;;;;;14.30;100.00;97875.94;6087845;23;20445;-90
2022/11/02 07:51:16;;;;;;;13.20;1.40;;;;;;;15.39;100.00;97879.50;6088037;23;20739;-89
2022/11/02 07:53:41;;;;;;;9.13;1.00;;;;;;;14.59;100.00;97887.09;6087739;23;20451;-89
2022/11/02 07:56:07;;;;;;;8.98;1.10;;;;;;;14.09;100.00;97895.13;6088045;23;20017;-89
2022/11/02 07:58:32;;;;;;;10.02;1.48;;;;;;;14.72;100.00;97903.22;6088292;23;20018;-90
2022/11/02 08:00:59;;;;;;;6.90;1.13;;;;;;;14.13;100.00;97909.84;6084859;23;20014;-89
2022/11/02 08:03:25;;;;;;;9.25;1.02;;;;;;;14.76;100.00;97902.19;6089327;23;20045;-89
2022/11/02 08:05:51;;;;;;;12.98;1.20;;;;;;;14.76;100.00;97920.56;6089554;23;20010;-90
2022/11/02 08:08:19;;;;;;;8.77;1.42;;;;;;;15.44;100.00;97903.81;6090308;23;20014;-88
2022/11/02 08:10:46;;;;;;;6.45;1.10;;;;;;;14.91;100.00;97900.72;6089701;23;20014;-90
2022/11/02 08:13:14;;;;;;;7.53;0.95;;;;;;;14.83;100.00;97908.88;6088626;23;20010;-89
2022/11/02 08:15:43;;;;;;;7.82;1.08;;;;;;;14.82;100.00;97914.22;6086586;23;20030;-90
2022/11/02 08:18:17;;;;;;;8.52;1.45;;;;;;;14.86;100.00;97910.53;6090248;23;20075;-89
2022/11/02 08:20:46;;;;;;;13.55;1.77;;;;;;;14.84;100.00;97913.22;6089921;23;20010;-89
2022/11/02 08:23:17;;;;;;;12.80;1.65;;;;;;;15.65;100.00;97896.78;6089403;23;20014;-89
2022/11/02 08:25:44;;;;;;;9.80;1.38;;;;;;;14.97;100.00;97903.09;6090434;23;20018;-90
2022/11/02 08:28:31;;;;;;;8.40;1.15;;;;;;;15.68;100.00;97892.25;6088354;23;20006;-90
2022/11/02 08:30:58;;;;;;;10.65;1.73;;;;;;;15.08;100.00;97894.78;6083236;23;20006;-92
2022/11/02 08:33:23;;;;;;;7.28;1.23;;;;;;;15.49;100.00;97896.56;6077991;23;20026;-88
2022/11/02 08:35:49;;;;;;;10.52;1.42;;;;;;;15.16;100.00;97899.72;6072951;23;20757;-90
2022/11/02 08:38:15;;;;;;;8.98;1.25;;;;;;;14.98;100.00;97899.56;6076136;23;20045;-90
2022/11/02 08:40:43;;;;;;;9.63;1.63;;;;;;;14.78;100.00;97912.63;6078019;23;20006;-92
2022/11/02 08:43:13;;;;;;;11.30;1.77;;;;;;;15.93;100.00;97887.72;6081956;23;20014;-91
2022/11/02 08:45:41;;;;;;;8.55;1.50;;;;;;;16.28;100.00;97901.03;6077982;23;20093;-92
2022/11/02 08:48:07;;;;;;;8.10;1.45;;;;;;;17.06;100.00;97912.28;6080572;23;20016;-91
2022/11/02 08:50:33;;;;;;;11.05;1.63;;;;;;;16.27;100.00;97899.31;6080060;23;20022;-91
2022/11/02 08:52:58;;;;;;;12.88;1.52;;;;;;;16.16;100.00;97894.56;6081128;23;20014;-91
2022/11/02 08:55:25;;;;;;;9.70;1.60;;;;;;;17.08;100.00;97902.53;6078195;23;20440;-92
2022/11/02 09:00:31;;;;;;;18.92;2.05;;;;;;;18.16;100.00;97891.78;6096121;23;20026;-90
2022/11/02 09:03:15;;;;;;;10.45;1.70;;;;;;;18.10;100.00;97886.81;6118234;23;20439;-91
2022/11/02 09:08:50;;;;;;;16.60;1.75;;;;;;;18.02;100.00;97860.84;6120475;23;20072;-90
2022/11/02 09:11:15;;;;;;;6.57;1.02;;;;;;;18.01;100.00;97861.78;6091765;23;20018;-92
2022/11/02 09:13:41;;;;;;;12.23;1.80;;;;;;;18.21;100.00;97863.31;6117265;23;20013;-91
2022/11/02 09:16:12;;;;;;;10.23;1.88;;;;;;;19.20;100.00;97851.66;6116294;23;20018;-90
2022/11/02 09:18:37;;;;;;;8.30;1.33;;;;;;;19.46;100.00;97850.13;6116799;23;20113;-90
2022/11/02 09:21:04;;;;;;;11.20;1.55;;;;;;;19.24;100.00;97854.03;6089508;23;20097;-88
2022/11/02 09:23:30;;;;;;;15.23;1.95;;;;;;;20.42;100.00;97860.16;6089901;23;20358;-89
2022/11/02 10:00:04;;;;;;;12.60;2.10;;;;;;;20.06;100.00;97780.31;6133410;23;20100;-92
2022/11/02 10:02:50;;;;;;;9.05;1.27;;;;;;;20.31;100.00;97773.47;6117046;23;20064;-96
2022/11/02 10:05:28;;;;;;;11.57;1.73;;;;;;;19.56;100.00;97756.06;6126694;23;20033;-94
2022/11/02 10:08:37;;;;;;;9.10;1.58;;;;;;;21.54;100.00;97743.19;6108691;23;20012;-96
2022/11/02 10:11:31;;;;;;;9.18;1.63;;;;;;;21.58;100.00;97733.22;6136015;23;20002;-94
2022/11/02 10:14:30;;;;;;;10.80;1.88;;;;;;;20.62;100.00;97732.56;6118864;23;20021;-96
2022/11/02 10:17:11;;;;;;;12.30;1.88;;;;;;;20.37;100.00;97735.97;6096078;23;20056;-92
2022/11/02 10:19:43;;;;;;;13.98;2.25;;;;;;;19.56;100.00;97728.78;6095245;23;20077;-92
2022/11/02 10:22:22;;;;;;;13.13;1.48;;;;;;;18.62;100.00;97715.88;6097024;23;20020;-92
2022/11/02 11:24:41;;;;;;;13.70;2.10;;;;;;;20.31;100.00;97603.16;6116478;23;20025;-89
2022/11/02 11:28:13;;;;;;;14.75;2.08;;;;;;;20.82;100.00;97594.41;6117268;23;20013;-91
2022/11/02 11:54:33;;;;;;;12.18;1.95;;;;;;;19.90;100.00;97536.16;6122300;23;20147;-89
2022/11/02 12:19:43;;;;;;;14.02;2.20;;;;;;;19.99;100.00;97452.69;6122926;23;20136;31
2022/11/02 12:34:37;;;;;;;10.48;1.73;;;;;;;21.21;100.00;97429.03;6120232;23;20024;-91
2022/11/02 12:55:12;;;;;;;12.52;2.33;;;;;;;22.61;100.00;97363.53;5916658;24;20045;-91
2022/11/02 12:58:26;;;;;;;;;;;;;;;;;;;;;
2022/11/02 13:01:30;;;;;;;13.68;2.30;;;;;;;21.18;100.00;97355.00;5870783;24;20012;-91
2022/11/02 13:07:40;;;;;;;13.00;2.00;;;;;;;21.34;100.00;97322.06;5920100;24;20553;-91
2022/11/02 13:11:10;;;;;;;17.52;2.50;;;;;;;21.56;100.00;97321.28;5979181;23;20099;-91
2022/11/02 13:17:47;;;;;;;12.75;2.40;;;;;;;21.45;100.00;97312.31;5888908;24;20036;-91
2022/11/02 13:20:59;;;;;;;14.10;2.60;;;;;;;21.46;100.00;97292.78;5945595;23;20130;-91
2022/11/02 13:24:02;;;;;;;12.95;2.60;;;;;;;20.28;100.00;97275.94;6000601;23;20023;-91
2022/11/02 13:32:53;;;;;;;14.45;2.08;;;;;;;21.20;100.00;97283.34;5973277;24;20023;-91
2022/11/02 13:39:26;;;;;;;12.85;2.22;;;;;;;21.56;100.00;97271.72;5972925;24;20039;-90
2022/11/02 13:42:41;;;;;;;14.25;1.90;;;;;;;20.74;100.00;97254.03;5950676;24;20458;-91
2022/11/02 13:45:59;;;;;;;12.98;2.10;;;;;;;21.70;100.00;97254.72;5973791;24;20039;-92
2022/11/02 13:56:31;;;;;;;13.07;2.20;;;;;;;19.85;100.00;97253.38;6058397;23;20033;-90
2022/11/02 14:02:43;;;;;;;9.82;2.00;;;;;;;20.46;100.00;97223.44;5999782;23;20079;-92
2022/11/02 14:08:52;;;;;;;;;;;;;;;20.08;100.00;97221.78;6002219;23;20153;-91
2022/11/02 14:11:42;;;;;;;13.63;2.50;;;;;;;19.89;100.00;97206.41;6000964;23;20325;-91
2022/11/02 14:14:29;;;;;;;11.77;2.10;;;;;;;20.00;100.00;97193.25;5975703;23;20015;-91
2022/11/02 14:20:48;;;;;;;15.95;2.20;;;;;;;20.07;100.00;97210.34;6002667;23;20046;-91
2022/11/02 14:28:32;;;;;;;13.52;2.45;;;;;;;20.28;100.00;97201.81;5972851;23;20012;-92
2022/11/02 14:39:32;;;;;;;13.50;2.38;;;;;;;20.96;100.00;97144.63;5891782;24;20245;-91
2022/11/02 14:46:05;;;;;;;14.15;2.42;;;;;;;20.95;100.00;97132.31;5863337;24;20174;-91
2022/11/02 14:52:52;;;;;;;12.25;2.25;;;;;;;21.08;100.00;97115.47;5861741;24;20101;-90
2022/11/02 14:56:24;;;;;;;16.38;2.80;;;;;;;19.88;100.00;97110.28;5862688;24;20021;-89
2022/11/02 14:59:54;;;;;;;12.98;2.30;;;;;;;20.08;100.00;97106.19;5863088;24;20018;-90
2022/11/02 15:17:12;;;;;;;16.10;2.38;;;;;;;19.89;100.00;97084.72;5890662;24;20032;-91
2022/11/02 15:30:18;;;;;;;19.13;2.80;;;;;;;16.88;100.00;97093.31;6160744;23;20111;-91
2022/11/02 15:32:52;;;;;;;13.38;2.80;;;;;;;17.15;100.00;97089.06;6124096;23;20075;-92
2022/11/02 15:35:29;;;;;;;19.40;2.83;;;;;;;17.06;100.00;97079.94;6123186;23;20017;-91
2022/11/02 15:38:00;;;;;;;20.50;2.60;;;;;;;17.35;100.00;97069.34;6123763;23;20013;-90
2022/11/02 15:40:38;;;;;;;17.35;2.78;;;;;;;18.41;100.00;97054.50;6125179;23;20032;-91
2022/11/02 15:43:35;;;;;;;19.35;2.80;;;;;;;17.90;100.00;97052.59;6124946;23;20017;-92
2022/11/02 15:46:22;;;;;;;17.85;2.35;;;;;;;17.22;100.00;97053.50;6124561;23;20084;-90
2022/11/02 15:49:11;;;;;;;16.33;2.83;;;;;;;17.27;100.00;97048.78;6126060;23;20087;-90
2022/11/02 15:52:03;;;;;;;18.42;2.42;;;;;;;17.16;100.00;97043.31;6149835;23;20013;-90
2022/11/02 15:54:46;;;;;;;14.00;2.40;;;;;;;17.44;100.00;97009.94;6124146;23;20020;-89
2022/11/02 15:57:32;;;;;;;18.40;2.60;;;;;;;16.92;100.00;97016.75;6150762;23;20010;-90
2022/11/02 15:59:58;;;;;;;16.80;2.67;;;;;;;17.06;100.00;97007.06;6150179;23;20017;-91
2022/11/02 16:02:28;;;;;;;19.55;3.55;;;;;;;17.23;100.00;97007.78;6149419;23;20494;-91
2022/11/02 16:04:59;;;;;;;13.80;2.22;;;;;;;16.96;100.00;97010.34;6150346;23;20060;-90
2022/11/02 16:07:27;;;;;;;18.58;2.30;;;;;;;17.02;100.00;97002.91;6149051;23;20033;-91
2022/11/02 16:09:53;;;;;;;17.63;2.30;;;;;;;17.46;100.00;97003.63;6123219;23;20021;-91
2022/11/02 16:12:24;;;;;;;18.48;3.42;;;;;;;16.86;100.00;96994.25;6121179;23;20072;-91
2022/11/02 16:14:57;;;;;;;17.63;2.33;;;;;;;17.43;100.00;96984.56;6120273;23;20013;-91
2022/11/02 16:17:25;;;;;;;18.52;2.97;;;;;;;17.87;100.00;96986.88;6120758;23;20096;-91
2022/11/02 16:20:07;;;;;;;15.05;2.38;;;;;;;18.47;100.00;96958.22;6149118;23;20085;-90
2022/11/02 16:22:33;;;;;;;13.93;2.08;;;;;;;17.94;100.00;96946.91;6148962;23;20092;-90